createdAt,value
2022-12-07T00:01:47.069Z,101139.00
2022-12-07T00:04:16.075Z,101133.59
2022-12-07T00:06:44.992Z,101034.72
2022-12-07T00:09:16.319Z,101127.50
2022-12-07T00:11:43.595Z,101127.34
2022-12-07T00:14:16.165Z,101036.97
2022-12-07T00:16:44.650Z,101120.19
2022-12-07T00:19:13.284Z,101116.53
2022-12-07T00:21:39.841Z,101049.91
2022-12-07T00:24:07.333Z,101053.28
2022-12-07T00:26:39.596Z,101043.75
2022-12-07T00:29:10.409Z,101098.84
2022-12-07T00:31:40.214Z,101083.84
2022-12-07T00:34:15.524Z,101101.88
2022-12-07T00:36:42.194Z,101096.56
2022-12-07T00:39:09.623Z,101048.16
2022-12-07T00:41:36.293Z,101023.22
2022-12-07T00:44:03.068Z,101027.41
2022-12-07T00:46:30.311Z,101086.78
2022-12-07T00:48:56.928Z,101054.41
2022-12-07T00:51:25.644Z,101079.13
2022-12-07T00:53:55.872Z,101080.06
2022-12-07T00:56:24.768Z,101068.69
2022-12-07T00:58:59.585Z,101021.28
2022-12-07T01:01:29.505Z,101068.63
2022-12-07T01:03:56.464Z,101071.19
2022-12-07T01:06:26.756Z,101061.88
2022-12-07T01:08:54.418Z,101055.00
2022-12-07T01:11:24.599Z,101050.28
2022-12-07T01:13:53.292Z,101048.38
2022-12-07T01:16:21.367Z,101045.59
2022-12-07T01:18:51.200Z,101044.88
2022-12-07T01:21:24.056Z,101042.69
2022-12-07T01:23:51.395Z,101048.94
2022-12-07T01:26:21.751Z,101043.47
2022-12-07T01:28:48.431Z,101037.44
2022-12-07T01:31:17.982Z,101032.75
2022-12-07T01:33:47.811Z,101040.72
2022-12-07T01:36:18.529Z,101041.97
2022-12-07T01:38:46.551Z,101045.19
2022-12-07T01:41:13.616Z,101047.38
2022-12-07T01:44:16.810Z,101047.31
2022-12-07T01:46:57.874Z,101029.28
2022-12-07T01:49:30.792Z,101045.72
2022-12-07T01:52:29.322Z,101041.34
2022-12-07T01:55:00.456Z,101040.47
2022-12-07T01:57:27.428Z,100988.22
2022-12-07T01:59:56.684Z,100956.09
2022-12-07T02:05:21.371Z,101021.75
2022-12-07T02:07:49.156Z,101040.25
2022-12-07T02:10:18.167Z,101006.25
2022-12-07T02:12:48.600Z,101011.78
2022-12-07T02:15:15.427Z,100962.56
2022-12-07T02:18:10.567Z,101018.13
2022-12-07T02:21:12.483Z,101029.56
2022-12-07T02:23:56.805Z,101003.63
2022-12-07T02:26:29.317Z,101029.41
2022-12-07T02:29:02.035Z,101024.97
2022-12-07T02:31:31.835Z,101018.66
2022-12-07T02:34:12.050Z,101024.50
2022-12-07T02:36:47.954Z,100977.88
2022-12-07T02:39:20.357Z,101022.00
2022-12-07T02:41:56.952Z,100970.56
2022-12-07T02:44:28.283Z,101029.13
2022-12-07T02:47:08.327Z,100936.09
2022-12-07T02:49:36.396Z,100983.81
2022-12-07T02:52:02.931Z,101023.25
2022-12-07T02:54:29.464Z,101029.06
2022-12-07T02:57:15.496Z,101018.19
2022-12-07T02:59:56.544Z,100952.72
2022-12-07T03:02:44.571Z,101036.44
2022-12-07T03:05:23.183Z,101028.94
2022-12-07T03:08:00.547Z,101030.50
2022-12-07T03:10:44.254Z,101030.16
2022-12-07T03:13:38.210Z,101037.50
2022-12-07T03:16:17.046Z,101030.38
2022-12-07T03:19:04.254Z,101026.09
2022-12-07T03:21:35.337Z,100966.88
2022-12-07T03:24:08.649Z,100997.69
2022-12-07T03:26:41.876Z,100980.53
2022-12-07T03:29:22.928Z,100983.69
2022-12-07T03:32:03.331Z,100986.56
2022-12-07T03:34:43.640Z,101019.50
2022-12-07T03:37:19.322Z,101015.97
2022-12-07T03:40:02.665Z,101025.53
2022-12-07T03:42:32.047Z,101024.44
2022-12-07T03:44:58.844Z,101012.69
2022-12-07T03:47:34.285Z,100977.03
2022-12-07T03:50:06.869Z,101028.75
2022-12-07T03:52:53.763Z,101029.03
2022-12-07T03:55:32.826Z,101030.13
2022-12-07T03:58:07.473Z,100967.53
2022-12-07T04:00:34.480Z,100974.72
2022-12-07T04:03:01.088Z,101029.13
2022-12-07T04:05:27.994Z,100927.81
2022-12-07T04:07:54.657Z,101038.81
2022-12-07T04:10:21.225Z,101034.38
2022-12-07T04:12:47.756Z,101027.84
2022-12-07T04:15:16.025Z,101039.41
2022-12-07T04:17:42.532Z,101020.81
2022-12-07T04:20:09.993Z,101010.09
2022-12-07T04:22:36.575Z,100974.19
2022-12-07T04:25:03.254Z,101024.72
2022-12-07T04:27:29.751Z,101035.00
2022-12-07T04:29:56.736Z,101031.81
2022-12-07T04:32:24.266Z,101044.41
2022-12-07T04:34:55.341Z,101029.34
2022-12-07T04:37:23.070Z,101044.22
2022-12-07T04:39:49.576Z,101036.56
2022-12-07T04:42:16.602Z,100974.03
2022-12-07T04:44:43.244Z,101045.41
2022-12-07T04:47:09.899Z,101023.25
2022-12-07T04:49:36.524Z,101050.41
2022-12-07T04:52:03.250Z,101018.50
2022-12-07T04:54:29.830Z,101030.38
2022-12-07T04:56:56.374Z,101037.94
2022-12-07T04:59:22.921Z,101019.13
2022-12-07T05:01:49.520Z,101019.41
2022-12-07T05:04:17.142Z,101003.94
2022-12-07T05:06:43.701Z,101019.34
2022-12-07T05:09:10.620Z,101046.69
2022-12-07T05:11:40.150Z,101047.31
2022-12-07T05:14:17.453Z,101042.00
2022-12-07T05:16:46.254Z,101038.66
2022-12-07T05:19:13.479Z,101053.66
2022-12-07T05:21:40.737Z,101040.09
2022-12-07T05:24:08.739Z,101042.19
2022-12-07T05:26:35.664Z,101036.94
2022-12-07T05:29:02.276Z,101036.25
2022-12-07T05:31:29.209Z,100988.25
2022-12-07T05:33:56.299Z,101034.25
2022-12-07T05:36:23.553Z,101035.28
2022-12-07T05:38:50.247Z,101030.38
2022-12-07T05:41:38.229Z,101035.84
2022-12-07T05:44:06.229Z,100982.13
2022-12-07T05:46:32.823Z,101035.22
2022-12-07T05:48:59.504Z,101035.16
2022-12-07T05:51:26.093Z,101032.09
2022-12-07T05:53:52.678Z,101039.38
2022-12-07T05:56:19.248Z,100994.44
2022-12-07T05:59:04.439Z,101032.75
2022-12-07T06:01:31.055Z,101039.97
2022-12-07T06:03:57.553Z,100966.69
2022-12-07T06:06:24.137Z,101040.94
2022-12-07T06:08:50.736Z,101032.47
2022-12-07T06:11:36.042Z,101033.34
2022-12-07T06:14:02.568Z,101032.91
2022-12-07T06:16:29.402Z,101014.22
2022-12-07T06:18:56.105Z,100971.72
2022-12-07T06:21:22.615Z,101016.06
2022-12-07T06:23:49.224Z,101030.75
2022-12-07T06:26:15.758Z,100984.59
2022-12-07T06:28:42.268Z,100975.25
2022-12-07T06:31:13.686Z,101014.88
2022-12-07T06:33:40.813Z,100982.56
2022-12-07T06:36:07.747Z,101024.38
2022-12-07T06:38:35.999Z,100988.53
2022-12-07T06:41:02.513Z,100977.25
2022-12-07T06:43:29.215Z,100982.16
2022-12-07T06:45:55.961Z,100985.78
2022-12-07T06:48:22.583Z,100962.09
2022-12-07T06:50:54.395Z,101021.91
2022-12-07T06:53:21.849Z,101027.72
2022-12-07T06:55:48.530Z,101008.06
2022-12-07T06:58:15.095Z,101009.66
2022-12-07T07:00:42.134Z,100998.00
2022-12-07T07:03:08.943Z,100969.75
2022-12-07T07:05:35.871Z,101018.91
2022-12-07T07:08:21.900Z,101026.09
2022-12-07T07:10:49.171Z,101027.34
2022-12-07T07:13:15.708Z,101024.31
2022-12-07T07:15:42.323Z,101005.84
2022-12-07T07:18:09.130Z,100971.13
2022-12-07T07:20:35.908Z,101008.94
2022-12-07T07:23:02.448Z,101021.59
2022-12-07T07:25:29.276Z,100993.34
2022-12-07T07:27:56.035Z,101018.63
2022-12-07T07:30:22.876Z,101028.91
2022-12-07T07:32:50.057Z,101003.84
2022-12-07T07:35:16.751Z,101029.78
2022-12-07T07:37:43.424Z,101028.75
2022-12-07T07:40:11.084Z,101021.59
2022-12-07T07:42:37.601Z,101034.75
2022-12-07T07:45:05.566Z,101030.72
2022-12-07T07:47:32.290Z,101026.84
2022-12-07T07:49:58.979Z,100990.41
2022-12-07T07:52:25.513Z,101040.53
2022-12-07T07:54:53.375Z,100990.97
2022-12-07T07:57:19.878Z,101041.34
2022-12-07T07:59:46.463Z,101025.41
2022-12-07T08:02:20.022Z,101044.78
2022-12-07T08:04:47.430Z,101050.19
2022-12-07T08:07:15.274Z,101048.16
2022-12-07T08:09:41.957Z,101045.66
2022-12-07T08:12:09.000Z,101035.84
2022-12-07T08:14:35.653Z,101049.38
2022-12-07T08:17:02.488Z,101009.00
2022-12-07T08:19:28.975Z,101009.47
2022-12-07T08:21:57.048Z,101005.88
2022-12-07T08:24:24.716Z,101040.50
2022-12-07T08:26:52.501Z,101046.09
2022-12-07T08:29:19.503Z,101039.31
2022-12-07T08:31:46.062Z,101031.16
2022-12-07T08:34:13.599Z,101043.97
2022-12-07T08:36:40.564Z,101037.97
2022-12-07T08:41:53.504Z,101047.63
2022-12-07T08:44:20.002Z,101042.75
2022-12-07T08:46:55.134Z,101040.56
2022-12-07T08:49:28.813Z,101003.28
2022-12-07T08:51:56.598Z,101034.44
2022-12-07T08:54:23.368Z,100988.47
2022-12-07T08:56:58.466Z,100983.47
2022-12-07T08:59:26.568Z,100991.28
2022-12-07T09:01:53.111Z,101043.16
2022-12-07T09:04:19.650Z,101008.00
2022-12-07T09:06:46.326Z,101046.91
2022-12-07T09:09:15.288Z,101052.03
2022-12-07T09:11:41.851Z,101060.56
2022-12-07T09:14:08.372Z,101032.72
2022-12-07T09:16:35.091Z,101030.56
2022-12-07T09:19:01.638Z,101054.34
2022-12-07T09:21:28.093Z,101052.56
2022-12-07T09:23:54.607Z,101048.31
2022-12-07T09:26:21.197Z,101056.78
2022-12-07T09:28:47.769Z,101035.53
2022-12-07T09:31:23.155Z,100997.00
2022-12-07T09:33:58.767Z,101029.38
2022-12-07T09:36:26.482Z,101047.81
2022-12-07T09:38:53.387Z,101053.19
2022-12-07T09:41:21.297Z,101035.16
2022-12-07T09:43:48.268Z,101050.22
2022-12-07T09:46:19.037Z,101034.88
2022-12-07T09:48:46.443Z,100986.78
2022-12-07T09:51:24.050Z,101001.53
2022-12-07T09:53:53.206Z,101040.53
2022-12-07T09:56:21.037Z,101042.16
2022-12-07T09:58:48.474Z,100989.16
2022-12-07T10:01:19.053Z,101027.72
2022-12-07T10:03:53.309Z,101040.84
2022-12-07T10:06:20.246Z,101041.72
2022-12-07T10:08:48.494Z,100952.69
2022-12-07T10:11:17.019Z,101028.53
2022-12-07T10:13:48.777Z,101019.19
2022-12-07T10:16:38.466Z,101026.59
2022-12-07T10:19:32.304Z,101028.50
2022-12-07T10:22:16.645Z,101029.50
2022-12-07T10:24:47.290Z,101033.22
2022-12-07T10:27:23.092Z,101027.13
2022-12-07T10:29:52.256Z,101030.50
2022-12-07T10:32:18.683Z,101032.84
2022-12-07T10:35:02.369Z,101030.06
2022-12-07T10:37:29.144Z,101016.28
2022-12-07T10:39:58.707Z,100980.53
2022-12-07T10:42:30.661Z,101028.13
2022-12-07T10:45:19.144Z,101037.00
2022-12-07T10:47:56.679Z,101032.78
2022-12-07T10:50:50.575Z,101029.06
2022-12-07T10:53:22.750Z,101028.19
2022-12-07T10:56:20.486Z,101034.88
2022-12-07T10:59:16.155Z,101020.31
2022-12-07T11:02:22.637Z,101017.03
2022-12-07T11:05:30.371Z,101022.97
2022-12-07T11:08:15.425Z,101017.44
2022-12-07T11:11:09.741Z,101018.59
2022-12-07T11:14:05.527Z,101016.09
2022-12-07T11:16:50.624Z,101004.34
2022-12-07T11:19:53.418Z,101005.56
2022-12-07T11:22:28.900Z,101006.34
2022-12-07T11:25:11.236Z,100947.66
2022-12-07T11:27:40.661Z,100997.50
2022-12-07T11:30:38.681Z,100996.91
2022-12-07T11:33:19.114Z,100997.41
2022-12-07T11:36:18.460Z,100990.16
2022-12-07T11:38:59.929Z,100860.63
2022-12-07T11:41:37.055Z,100981.94
2022-12-07T11:44:06.923Z,100991.78
2022-12-07T11:46:59.978Z,100982.38
2022-12-07T11:49:41.737Z,100989.53
2022-12-07T11:52:22.365Z,100976.47
2022-12-07T11:54:53.139Z,100984.97
2022-12-07T11:57:37.688Z,100990.69
2022-12-07T12:00:13.398Z,100974.25
2022-12-07T12:02:52.650Z,100976.34
2022-12-07T12:05:23.044Z,100979.63
2022-12-07T12:11:18.533Z,100978.06
2022-12-07T12:14:34.881Z,100985.72
2022-12-07T12:17:22.414Z,100973.00
2022-12-07T12:20:20.254Z,100962.41
2022-12-07T12:22:53.153Z,100941.38
2022-12-07T12:25:50.610Z,100977.78
2022-12-07T12:28:25.192Z,100958.69
2022-12-07T12:31:10.992Z,100952.47
2022-12-07T12:33:39.495Z,100970.25
2022-12-07T12:36:25.714Z,100968.34
2022-12-07T12:39:21.866Z,100971.47
2022-12-07T12:41:48.514Z,100975.09
2022-12-07T12:44:20.884Z,100970.16
2022-12-07T12:46:58.627Z,100952.09
2022-12-07T12:49:26.051Z,100967.84
2022-12-07T12:51:59.579Z,100975.19
2022-12-07T12:54:32.042Z,100978.19
2022-12-07T12:57:01.454Z,100971.97
2022-12-07T12:59:33.124Z,100945.22
2022-12-07T13:02:02.701Z,100978.66
2022-12-07T13:04:40.909Z,100968.50
2022-12-07T13:07:13.043Z,100927.75
2022-12-07T13:09:45.208Z,100965.19
2022-12-07T13:12:17.114Z,100964.59
2022-12-07T13:14:44.933Z,100976.19
2022-12-07T13:17:33.311Z,100973.88
2022-12-07T13:20:12.824Z,100961.09
2022-12-07T13:22:45.457Z,100968.25
2022-12-07T13:25:21.941Z,100962.91
2022-12-07T13:27:57.299Z,100974.16
2022-12-07T13:30:24.654Z,100945.13
2022-12-07T13:32:56.389Z,100976.28
2022-12-07T13:35:34.978Z,100960.78
2022-12-07T13:38:23.332Z,101002.03
2022-12-07T13:41:11.679Z,100982.03
2022-12-07T13:43:53.232Z,100979.69
2022-12-07T13:46:31.477Z,100934.84
2022-12-07T13:48:58.139Z,100985.81
2022-12-07T13:51:29.203Z,100986.41
2022-12-07T13:54:12.019Z,100980.19
2022-12-07T13:56:40.651Z,100984.19
2022-12-07T13:59:15.318Z,100989.91
2022-12-07T14:01:41.946Z,100985.97
2022-12-07T14:04:33.961Z,101004.31
2022-12-07T14:07:02.784Z,100988.13
2022-12-07T14:09:30.888Z,100969.66
2022-12-07T14:11:58.407Z,100982.69
2022-12-07T14:14:35.985Z,100983.28
2022-12-07T14:17:16.320Z,100978.13
2022-12-07T14:19:50.983Z,100947.25
2022-12-07T14:22:27.344Z,100976.22
2022-12-07T14:25:19.835Z,100977.16
2022-12-07T14:27:59.396Z,100949.50
2022-12-07T14:30:31.940Z,100942.72
2022-12-07T14:33:02.010Z,100985.50
2022-12-07T14:35:30.105Z,100986.72
2022-12-07T14:37:57.005Z,100936.81
2022-12-07T14:40:25.793Z,100996.19
2022-12-07T14:42:57.146Z,100938.44
2022-12-07T14:45:24.058Z,100990.34
2022-12-07T14:50:39.702Z,100991.44
2022-12-07T14:55:49.628Z,100984.69
2022-12-07T14:58:17.853Z,100950.03
2022-12-07T15:00:45.273Z,100998.16
2022-12-07T15:03:12.027Z,100993.94
2022-12-07T15:05:38.775Z,100959.47
2022-12-07T15:08:05.785Z,100995.56
2022-12-07T15:10:36.303Z,101002.31
2022-12-07T15:13:22.423Z,100986.97
2022-12-07T15:15:50.863Z,100995.66
2022-12-07T15:18:18.174Z,100991.66
2022-12-07T15:20:45.385Z,100992.44
2022-12-07T15:23:13.189Z,100974.75
2022-12-07T15:25:47.587Z,101001.53
2022-12-07T15:28:14.652Z,100928.31
2022-12-07T15:30:43.920Z,101004.84
2022-12-07T15:33:11.207Z,100952.84
2022-12-07T15:35:42.003Z,100999.50
2022-12-07T15:38:09.296Z,101001.31
2022-12-07T15:40:36.117Z,100942.00
2022-12-07T15:43:03.651Z,101000.16
2022-12-07T15:45:30.762Z,101009.78
2022-12-07T15:50:43.859Z,100932.59
2022-12-07T15:53:10.395Z,100953.75
2022-12-07T15:55:39.966Z,100949.03
2022-12-07T15:58:06.857Z,100977.97
2022-12-07T16:00:34.050Z,100989.94
2022-12-07T16:03:00.722Z,100976.06
2022-12-07T16:05:27.233Z,100990.59
2022-12-07T16:07:53.813Z,100941.75
2022-12-07T16:10:20.367Z,100988.09
2022-12-07T16:12:46.885Z,100952.22
2022-12-07T16:15:13.442Z,100982.63
2022-12-07T16:17:39.942Z,100987.09
2022-12-07T16:20:07.397Z,100982.38
2022-12-07T16:22:34.431Z,100952.22
2022-12-07T16:25:01.171Z,100980.53
2022-12-07T16:27:27.857Z,100924.69
2022-12-07T16:29:54.404Z,100919.59
2022-12-07T16:32:20.860Z,100962.31
2022-12-07T16:34:47.293Z,100967.94
2022-12-07T16:37:13.755Z,100965.81
2022-12-07T16:39:40.214Z,100910.47
2022-12-07T16:42:06.810Z,100949.56
2022-12-07T16:44:33.914Z,100915.66
2022-12-07T16:47:01.852Z,100979.44
2022-12-07T16:49:28.729Z,100919.91
2022-12-07T16:52:18.281Z,100928.88
2022-12-07T16:54:41.724Z,100926.72
2022-12-07T16:57:08.173Z,100968.31
2022-12-07T16:59:34.756Z,100947.56
2022-12-07T17:02:01.229Z,100978.66
2022-12-07T17:04:27.984Z,100928.50
2022-12-07T17:06:54.665Z,100976.94
2022-12-07T17:09:21.794Z,100934.56
2022-12-07T17:11:49.050Z,100933.13
2022-12-07T17:14:34.488Z,100939.22
2022-12-07T17:17:01.269Z,100967.31
2022-12-07T17:19:27.826Z,100971.75
2022-12-07T17:21:54.323Z,100938.06
2022-12-07T17:24:20.764Z,100962.00
2022-12-07T17:26:48.119Z,100954.16
2022-12-07T17:29:16.814Z,100956.16
2022-12-07T17:31:49.324Z,100956.25
2022-12-07T17:34:17.739Z,100966.03
2022-12-07T17:36:46.079Z,100895.34
2022-12-07T17:39:16.926Z,100947.34
2022-12-07T17:42:02.560Z,100960.63
2022-12-07T17:44:29.467Z,100951.22
2022-12-07T17:46:59.810Z,100948.25
2022-12-07T17:49:27.287Z,100938.78
2022-12-07T17:52:12.812Z,100954.81
2022-12-07T17:54:39.356Z,100932.34
2022-12-07T17:57:05.869Z,100894.84
2022-12-07T17:59:32.386Z,100883.56
2022-12-07T18:01:58.938Z,100934.56
2022-12-07T18:04:25.533Z,100932.19
2022-12-07T18:06:53.043Z,100919.53
2022-12-07T18:09:21.039Z,100915.47
2022-12-07T18:11:47.602Z,100874.00
2022-12-07T18:14:14.164Z,100917.97
2022-12-07T18:16:41.048Z,100880.06
2022-12-07T18:19:09.158Z,100931.25
2022-12-07T18:21:35.906Z,100883.91
2022-12-07T18:24:04.543Z,100852.63
2022-12-07T18:26:33.684Z,100900.66
2022-12-07T18:29:00.921Z,100918.38
2022-12-07T18:31:28.805Z,100916.47
2022-12-07T18:33:56.379Z,100913.06
2022-12-07T18:36:24.161Z,100917.38
2022-12-07T18:38:51.902Z,100898.56
2022-12-07T18:41:19.041Z,100908.22
2022-12-07T18:43:45.959Z,100879.09
2022-12-07T18:46:15.277Z,100890.09
2022-12-07T18:48:42.205Z,100903.47
2022-12-07T18:51:10.905Z,100904.31
2022-12-07T18:53:37.728Z,100899.13
2022-12-07T18:56:08.949Z,100909.34
2022-12-07T18:58:35.511Z,100889.03
2022-12-07T19:01:02.298Z,100891.81
2022-12-07T19:03:33.226Z,100880.03
2022-12-07T19:06:06.048Z,100894.34
2022-12-07T19:08:34.264Z,100836.94
2022-12-07T19:11:23.720Z,100875.44
2022-12-07T19:13:50.851Z,100896.53
2022-12-07T19:16:17.396Z,100877.44
2022-12-07T19:18:49.346Z,100888.00
2022-12-07T19:21:18.639Z,100853.19
2022-12-07T19:23:45.210Z,100816.88
2022-12-07T19:26:11.774Z,100883.44
2022-12-07T19:28:38.323Z,100810.50
2022-12-07T19:31:14.285Z,100829.25
2022-12-07T19:33:41.158Z,100882.41
2022-12-07T19:36:08.394Z,100891.28
2022-12-07T19:38:35.024Z,100843.44
2022-12-07T19:41:30.574Z,100873.69
2022-12-07T19:43:58.005Z,100863.84
2022-12-07T19:46:24.655Z,100823.38
2022-12-07T19:48:51.327Z,100875.81
2022-12-07T19:51:18.641Z,100832.31
2022-12-07T19:53:45.108Z,100857.84
2022-12-07T19:56:16.408Z,100797.91
2022-12-07T19:58:43.272Z,100868.13
2022-12-07T20:01:10.305Z,100869.84
2022-12-07T20:03:37.020Z,100862.75
2022-12-07T20:06:09.445Z,100848.97
2022-12-07T20:08:37.096Z,100820.72
2022-12-07T20:11:22.988Z,100860.09
2022-12-07T20:13:49.473Z,100819.53
2022-12-07T20:16:19.790Z,100826.28
2022-12-07T20:18:50.519Z,100756.50
2022-12-07T20:21:22.778Z,100848.03
2022-12-07T20:23:49.619Z,100787.38
2022-12-07T20:26:16.279Z,100767.75
2022-12-07T20:28:46.660Z,100837.41
2022-12-07T20:31:15.601Z,100847.28
2022-12-07T20:33:46.709Z,100833.16
2022-12-07T20:36:16.289Z,100749.75
2022-12-07T20:38:43.947Z,100791.69
2022-12-07T20:41:32.853Z,100782.13
2022-12-07T20:44:01.157Z,100825.63
2022-12-07T20:46:30.733Z,100767.91
2022-12-07T20:49:01.439Z,100826.25
2022-12-07T20:51:28.938Z,100823.13
2022-12-07T20:53:56.349Z,100803.03
2022-12-07T20:56:29.382Z,100817.22
2022-12-07T20:58:59.381Z,100758.97
2022-12-07T21:01:26.013Z,100780.47
2022-12-07T21:03:57.736Z,100807.09
2022-12-07T21:06:25.027Z,100805.13
2022-12-07T21:08:54.518Z,100790.97
2022-12-07T21:11:22.246Z,100801.38
2022-12-07T21:13:49.126Z,100778.16
2022-12-07T21:16:22.295Z,100798.50
2022-12-07T21:18:49.414Z,100792.28
2022-12-07T21:21:19.425Z,100755.47
2022-12-07T21:23:48.248Z,100776.50
2022-12-07T21:26:17.692Z,100817.72
2022-12-07T21:28:44.367Z,100779.06
2022-12-07T21:31:13.510Z,100790.50
2022-12-07T21:33:40.908Z,100785.75
2022-12-07T21:36:08.469Z,100720.19
2022-12-07T21:38:35.094Z,100777.84
2022-12-07T21:41:20.638Z,100757.13
2022-12-07T21:43:48.044Z,100644.03
2022-12-07T21:46:16.151Z,100767.88
2022-12-07T21:48:43.319Z,100681.03
2022-12-07T21:51:14.083Z,100760.47
2022-12-07T21:53:42.630Z,100696.34
2022-12-07T21:56:36.291Z,100752.66
2022-12-07T21:59:06.023Z,100551.56
2022-12-07T22:01:37.845Z,100733.84
2022-12-07T22:04:22.329Z,100701.91
2022-12-07T22:06:49.603Z,100573.63
2022-12-07T22:09:18.910Z,100731.03
2022-12-07T22:11:46.785Z,100742.31
2022-12-07T22:14:32.022Z,100739.03
2022-12-07T22:16:58.977Z,100659.44
2022-12-07T22:19:26.657Z,100732.44
2022-12-07T22:21:54.464Z,100529.13
2022-12-07T22:24:20.948Z,100731.69
2022-12-07T22:26:47.495Z,100714.88
2022-12-07T22:29:13.969Z,100689.22
2022-12-07T22:31:43.508Z,100692.66
2022-12-07T22:34:17.711Z,100661.69
2022-12-07T22:36:45.298Z,100705.94
2022-12-07T22:39:11.907Z,100693.91
2022-12-07T22:41:38.432Z,100684.06
2022-12-07T22:44:08.373Z,100691.22
2022-12-07T22:46:35.529Z,100605.59
2022-12-07T22:49:05.790Z,100630.28
2022-12-07T22:51:35.772Z,100694.09
2022-12-07T22:54:04.065Z,100585.84
2022-12-07T22:56:32.449Z,100673.09
2022-12-07T22:58:58.966Z,100667.09
2022-12-07T23:01:25.519Z,100685.78
2022-12-07T23:03:52.463Z,100686.50
2022-12-07T23:06:22.022Z,100675.56
2022-12-07T23:08:52.293Z,100693.13
2022-12-07T23:11:42.122Z,100658.66
2022-12-07T23:14:17.893Z,100637.66
2022-12-07T23:16:44.733Z,100617.88
2022-12-07T23:19:11.370Z,100634.59
2022-12-07T23:21:37.897Z,100631.25
2022-12-07T23:24:04.715Z,100641.47
2022-12-07T23:26:31.226Z,100648.63
2022-12-07T23:28:58.475Z,100558.25
2022-12-07T23:31:25.334Z,100625.69
2022-12-07T23:33:51.809Z,100617.66
2022-12-07T23:36:26.541Z,100629.59
2022-12-07T23:38:54.964Z,100635.59
2022-12-07T23:41:23.790Z,100624.81
2022-12-07T23:43:50.882Z,100621.69
2022-12-07T23:46:25.824Z,100598.97
2022-12-07T23:48:54.723Z,100600.44
2022-12-07T23:51:22.045Z,100560.94
2022-12-07T23:53:50.237Z,100596.63
2022-12-07T23:56:25.899Z,100594.13
2022-12-07T23:58:53.658Z,100591.00
